Time;durP1;ratioP1;P1;durP2;ratioP2;P2;SDS_P1;SDS_P2;PMS_P1;PMS_P2;Temp;Humidity;BMP_temperature;BMP_pressure;BME280_temperature;BME280_humidity;BME280_pressure;Samples;Min_cycle;Max_cycle;Signal;HPM_P1;HPM_P2
2022/02/25 00:00:59;;;;;;;1.30;1.20;;;25.40;55.50;;;;;;5036839;28;20463;-85
2022/02/25 00:03:26;;;;;;;2.03;1.40;;;25.40;55.50;;;;;;5036855;28;20442;-85
2022/02/25 00:05:53;;;;;;;1.20;1.10;;;25.40;55.40;;;;;;5037126;28;20848;-85
2022/02/25 00:08:20;;;;;;;2.23;1.00;;;25.40;55.40;;;;;;5036576;28;20442;-85
2022/02/25 00:10:46;;;;;;;1.80;1.20;;;25.40;55.40;;;;;;5036546;28;20482;-85
2022/02/25 00:13:13;;;;;;;1.53;1.30;;;25.40;55.40;;;;;;5036638;28;20443;-85
2022/02/25 00:15:41;;;;;;;1.20;1.10;;;25.40;55.40;;;;;;5036680;28;20446;-85
2022/02/25 00:18:08;;;;;;;1.60;1.40;;;25.50;55.40;;;;;;5036406;28;20450;-86
2022/02/25 00:20:35;;;;;;;1.50;1.30;;;25.40;55.40;;;;;;5036289;28;20454;-85
2022/02/25 00:23:02;;;;;;;3.00;1.30;;;25.40;55.30;;;;;;5036555;28;20792;-85
2022/02/25 00:25:29;;;;;;;1.80;1.50;;;25.40;55.30;;;;;;5036316;28;20521;-85
2022/02/25 00:27:55;;;;;;;1.50;1.30;;;25.40;55.30;;;;;;5036377;28;20805;-86
2022/02/25 00:30:22;;;;;;;2.80;1.47;;;25.40;55.30;;;;;;5036079;28;20482;-85
2022/02/25 00:32:50;;;;;;;1.60;1.20;;;25.40;55.30;;;;;;5036260;28;20467;-85
2022/02/25 00:35:17;;;;;;;2.23;1.40;;;25.40;55.30;;;;;;5036332;28;20439;-86
2022/02/25 00:37:44;;;;;;;1.40;1.27;;;25.40;55.30;;;;;;5036189;28;20921;-85
2022/02/25 00:40:11;;;;;;;1.60;1.33;;;25.40;55.30;;;;;;5036190;28;20435;-85
2022/02/25 00:42:38;;;;;;;1.30;1.17;;;25.40;55.30;;;;;;5036033;28;20778;-85
2022/02/25 00:45:06;;;;;;;1.10;1.00;;;25.30;55.30;;;;;;5036044;28;20442;-85
2022/02/25 00:47:33;;;;;;;1.53;1.43;;;25.30;55.30;;;;;;5035786;28;20809;-86
2022/02/25 00:50:01;;;;;;;1.57;1.47;;;25.30;55.30;;;;;;5035802;28;20482;-85
2022/02/25 00:52:28;;;;;;;1.63;1.10;;;25.30;55.30;;;;;;5035727;28;20444;-85
2022/02/25 00:54:55;;;;;;;1.30;1.20;;;25.40;55.30;;;;;;5035944;28;20478;-85
2022/02/25 00:57:21;;;;;;;1.40;1.03;;;25.30;55.30;;;;;;5035740;28;20449;-85
2022/02/25 00:59:48;;;;;;;1.70;1.47;;;25.30;55.20;;;;;;5035860;28;20438;-85
2022/02/25 01:02:15;;;;;;;1.30;1.10;;;25.30;55.20;;;;;;5035609;28;20463;-86
2022/02/25 01:04:41;;;;;;;1.47;1.20;;;25.30;55.20;;;;;;5035654;28;20458;-85
2022/02/25 01:07:09;;;;;;;1.40;1.20;;;25.30;55.20;;;;;;5035688;28;20435;-85
2022/02/25 01:09:36;;;;;;;1.30;1.20;;;25.30;55.20;;;;;;5035313;28;20969;-85
2022/02/25 01:12:04;;;;;;;1.30;1.20;;;25.30;55.20;;;;;;5034750;28;20434;-86
2022/02/25 01:14:31;;;;;;;2.13;1.50;;;25.30;55.20;;;;;;5035824;28;21003;-85
2022/02/25 01:16:57;;;;;;;1.43;1.20;;;25.30;55.10;;;;;;5035397;28;20964;-85
2022/02/25 01:19:24;;;;;;;1.40;1.20;;;25.40;55.20;;;;;;5035273;28;20446;-85
2022/02/25 01:21:51;;;;;;;1.30;1.10;;;25.30;55.10;;;;;;5035325;28;20454;-85
2022/02/25 01:24:19;;;;;;;1.50;0.97;;;25.30;55.10;;;;;;5035360;28;20465;-85
2022/02/25 01:26:46;;;;;;;2.10;1.30;;;25.30;55.10;;;;;;5035348;28;20929;-85
2022/02/25 01:29:13;;;;;;;1.40;1.23;;;25.20;55.10;;;;;;5035055;28;20482;-85
2022/02/25 01:31:43;;;;;;;1.20;1.10;;;25.30;55.10;;;;;;5035262;28;20466;-85
2022/02/25 01:34:10;;;;;;;1.30;1.20;;;25.20;55.00;;;;;;5035305;28;20493;-85
2022/02/25 01:36:36;;;;;;;1.50;1.10;;;25.20;55.10;;;;;;5035035;28;20442;-85
2022/02/25 01:39:04;;;;;;;1.73;1.20;;;25.20;55.00;;;;;;5035139;28;20957;-86
2022/02/25 01:41:33;;;;;;;1.30;1.20;;;25.20;55.00;;;;;;5035048;28;20442;-85
2022/02/25 01:44:18;;;;;;;1.20;1.00;;;25.30;55.10;;;;;;5034865;28;20526;-85
2022/02/25 01:46:49;;;;;;;1.80;1.50;;;25.20;55.00;;;;;;5034978;28;20454;-85
2022/02/25 01:49:16;;;;;;;1.30;1.00;;;25.20;55.10;;;;;;5034716;28;20478;-85
2022/02/25 01:51:43;;;;;;;1.63;1.10;;;25.20;55.10;;;;;;5034610;28;20931;-85
2022/02/25 01:54:10;;;;;;;1.43;1.23;;;25.20;55.00;;;;;;5034394;28;20474;-85
2022/02/25 01:56:40;;;;;;;1.40;1.30;;;25.20;55.00;;;;;;5034627;28;20443;-85
2022/02/25 01:59:07;;;;;;;1.70;1.40;;;25.20;55.00;;;;;;5034822;28;20769;-86
2022/02/25 02:01:36;;;;;;;1.43;1.00;;;25.20;55.00;;;;;;5034585;28;20814;-85
2022/02/25 02:04:03;;;;;;;1.47;1.00;;;25.20;55.00;;;;;;5034541;28;20446;-85
2022/02/25 02:06:30;;;;;;;1.40;1.27;;;25.20;55.00;;;;;;5034325;28;20438;-85
2022/02/25 02:08:57;;;;;;;1.40;1.03;;;25.30;55.10;;;;;;5034651;28;20438;-85
2022/02/25 02:11:32;;;;;;;1.40;1.00;;;25.30;55.00;;;;;;5034589;28;20479;-85
2022/02/25 02:14:02;;;;;;;1.20;1.10;;;25.20;55.00;;;;;;5034553;28;20462;-85
2022/02/25 02:16:29;;;;;;;1.20;1.10;;;25.20;55.00;;;;;;5034529;28;20438;-85
2022/02/25 02:18:57;;;;;;;1.20;1.00;;;25.20;54.90;;;;;;5033987;28;20443;-85
2022/02/25 02:21:25;;;;;;;1.70;1.10;;;25.20;54.90;;;;;;5034319;28;20441;-85
2022/02/25 02:23:55;;;;;;;1.20;0.90;;;25.10;54.90;;;;;;5034219;28;20439;-85
2022/02/25 02:26:22;;;;;;;1.37;1.27;;;25.10;54.90;;;;;;5034239;28;20447;-85
2022/02/25 02:28:50;;;;;;;1.10;1.00;;;25.10;54.90;;;;;;5034139;28;20439;-85
2022/02/25 02:31:17;;;;;;;1.50;1.10;;;25.10;54.90;;;;;;5033881;28;20593;-85
2022/02/25 02:33:43;;;;;;;1.10;1.00;;;25.10;54.90;;;;;;5033946;28;20460;-85
2022/02/25 02:36:10;;;;;;;1.27;1.17;;;25.10;54.90;;;;;;5033959;28;20442;-86
2022/02/25 02:38:38;;;;;;;1.33;1.23;;;25.10;54.90;;;;;;5033763;28;20450;-85
2022/02/25 02:41:07;;;;;;;1.10;0.90;;;25.10;54.90;;;;;;5033771;28;20443;-84
2022/02/25 02:43:35;;;;;;;1.30;1.10;;;25.10;54.80;;;;;;5033965;28;20447;-85
2022/02/25 02:46:01;;;;;;;1.50;1.40;;;25.10;54.90;;;;;;5034169;28;20435;-85
2022/02/25 02:48:28;;;;;;;1.80;1.27;;;25.00;54.80;;;;;;5033690;28;20453;-85
2022/02/25 02:50:55;;;;;;;1.20;0.90;;;25.00;54.80;;;;;;5033573;28;20478;-85
2022/02/25 02:53:21;;;;;;;1.07;0.80;;;25.00;54.80;;;;;;5033478;28;20447;-85
2022/02/25 02:55:48;;;;;;;1.40;1.00;;;25.00;54.80;;;;;;5034538;28;20445;-85
2022/02/25 02:58:16;;;;;;;1.47;1.00;;;25.00;54.80;;;;;;5033607;28;20446;-86
2022/02/25 03:00:46;;;;;;;1.10;0.90;;;25.00;54.80;;;;;;5033847;28;20457;-85
2022/02/25 03:03:13;;;;;;;1.70;1.40;;;25.00;54.80;;;;;;5033613;28;20442;-85
2022/02/25 03:05:41;;;;;;;1.10;0.90;;;25.00;54.80;;;;;;5033582;28;20439;-85
2022/02/25 03:08:08;;;;;;;1.30;1.00;;;25.00;54.80;;;;;;5033676;28;20443;-86
2022/02/25 03:10:36;;;;;;;1.00;0.90;;;25.00;54.80;;;;;;5033455;28;20489;-85
2022/02/25 03:13:04;;;;;;;1.10;1.00;;;25.00;54.70;;;;;;5033537;28;20442;-85
2022/02/25 03:15:32;;;;;;;1.40;1.00;;;25.00;54.80;;;;;;5033672;28;20452;-85
2022/02/25 03:17:59;;;;;;;1.13;0.80;;;25.00;54.70;;;;;;5033309;28;20447;-85
2022/02/25 03:20:26;;;;;;;1.37;0.90;;;25.00;54.70;;;;;;5033374;28;20439;-86
2022/02/25 03:22:55;;;;;;;1.50;1.10;;;25.00;54.60;;;;;;5033470;28;20438;-85
2022/02/25 03:25:23;;;;;;;1.47;0.83;;;25.10;54.60;;;;;;5033454;28;20787;-85
2022/02/25 03:27:50;;;;;;;1.10;0.93;;;25.10;54.60;;;;;;5033298;28;20466;-86
2022/02/25 03:30:17;;;;;;;1.17;1.00;;;25.10;54.60;;;;;;5033238;28;20943;-85
2022/02/25 03:32:45;;;;;;;1.20;1.00;;;25.10;54.50;;;;;;5032991;28;20467;-86
2022/02/25 03:35:14;;;;;;;1.83;1.10;;;25.10;54.50;;;;;;5036707;28;20450;-85
2022/02/25 03:37:42;;;;;;;1.10;0.97;;;25.10;54.50;;;;;;5037432;28;20465;-85
2022/02/25 03:40:10;;;;;;;1.90;1.30;;;25.20;54.40;;;;;;5037174;28;20454;-85
2022/02/25 03:42:38;;;;;;;1.30;1.00;;;25.20;54.90;;;;;;5037059;28;20430;-86
2022/02/25 03:45:06;;;;;;;1.30;0.87;;;25.30;54.20;;;;;;5037771;28;20434;-85
2022/02/25 03:47:33;;;;;;;1.10;0.90;;;25.30;54.20;;;;;;5036977;28;20796;-85
2022/02/25 03:50:01;;;;;;;1.17;0.90;;;25.40;54.20;;;;;;5037248;28;20470;-86
2022/02/25 03:52:28;;;;;;;1.20;1.00;;;25.40;54.10;;;;;;5037002;28;20483;-85
2022/02/25 03:54:55;;;;;;;1.17;0.83;;;25.40;54.10;;;;;;5036887;28;20500;-85
2022/02/25 03:57:22;;;;;;;1.10;0.97;;;25.40;54.00;;;;;;5037109;28;20447;-85
2022/02/25 03:59:48;;;;;;;1.10;0.90;;;25.40;54.00;;;;;;5036960;28;20442;-85
2022/02/25 04:02:15;;;;;;;1.20;1.03;;;25.40;54.00;;;;;;5036862;28;20462;-85
2022/02/25 04:04:42;;;;;;;1.20;1.00;;;25.40;53.90;;;;;;5036810;28;20443;-85
2022/02/25 04:07:10;;;;;;;1.40;1.07;;;25.40;54.00;;;;;;5036709;28;20442;-85
2022/02/25 04:09:37;;;;;;;1.10;0.90;;;25.40;53.90;;;;;;5028621;28;20442;-86
2022/02/25 04:12:04;;;;;;;1.00;0.70;;;25.40;53.90;;;;;;5036534;28;20490;-85
2022/02/25 04:14:31;;;;;;;1.50;1.00;;;25.40;53.90;;;;;;5036671;28;20442;-85
2022/02/25 04:16:57;;;;;;;1.00;0.90;;;25.40;53.80;;;;;;5036552;28;20533;-85
2022/02/25 04:19:24;;;;;;;1.30;0.90;;;25.40;53.90;;;;;;5036333;28;20863;-86
2022/02/25 04:21:51;;;;;;;1.00;0.90;;;25.40;53.80;;;;;;5036450;28;20446;-85
2022/02/25 04:24:19;;;;;;;1.80;1.40;;;25.40;53.80;;;;;;5036454;28;20450;-85
2022/02/25 04:26:46;;;;;;;1.60;1.00;;;25.40;53.80;;;;;;5036424;28;20805;-85
2022/02/25 04:29:13;;;;;;;1.40;1.10;;;25.40;53.90;;;;;;5036394;28;20940;-86
2022/02/25 04:31:39;;;;;;;1.10;0.90;;;25.40;53.80;;;;;;5036070;28;20490;-85
2022/02/25 04:34:06;;;;;;;1.20;1.00;;;25.40;53.80;;;;;;5036182;28;20937;-86
2022/02/25 04:36:35;;;;;;;1.40;1.00;;;25.40;53.80;;;;;;5036184;28;20458;-85
2022/02/25 04:39:05;;;;;;;1.10;1.00;;;25.40;53.70;;;;;;5036299;28;20879;-85
2022/02/25 04:41:33;;;;;;;1.50;1.00;;;25.40;53.70;;;;;;5036207;28;20786;-85
2022/02/25 04:44:00;;;;;;;1.10;1.00;;;25.40;53.60;;;;;;5036206;28;20450;-85
2022/02/25 04:46:27;;;;;;;1.10;1.00;;;25.40;53.70;;;;;;5034556;28;20450;-85
2022/02/25 04:48:54;;;;;;;1.47;0.80;;;25.40;53.70;;;;;;5036175;28;20458;-86
2022/02/25 04:51:22;;;;;;;1.20;0.80;;;25.50;53.60;;;;;;5035905;28;20486;-86
2022/02/25 04:53:49;;;;;;;1.37;1.00;;;25.50;53.60;;;;;;5035886;28;20478;-85
2022/02/25 04:56:16;;;;;;;1.20;0.80;;;25.50;53.60;;;;;;5035913;28;20454;-85
2022/02/25 04:58:44;;;;;;;1.00;0.70;;;25.50;53.60;;;;;;5035800;28;20435;-85
2022/02/25 05:01:11;;;;;;;1.30;1.00;;;25.50;53.60;;;;;;5035561;28;20455;-85
2022/02/25 05:03:38;;;;;;;1.40;1.00;;;25.50;53.50;;;;;;5047528;28;20438;-85
2022/02/25 05:06:05;;;;;;;1.20;0.97;;;25.50;53.50;;;;;;5042068;28;20442;-85
2022/02/25 05:08:32;;;;;;;1.33;0.80;;;25.50;53.50;;;;;;5035578;28;20443;-87
2022/02/25 05:10:58;;;;;;;1.27;1.00;;;25.50;53.50;;;;;;5035817;28;20493;-86
2022/02/25 05:13:25;;;;;;;2.40;0.87;;;25.50;53.50;;;;;;5035911;28;20443;-84
2022/02/25 05:21:23;;;;;;;1.10;0.80;;;25.50;53.40;;;;;;5035459;28;20414;-85
2022/02/25 05:23:50;;;;;;;1.40;1.00;;;25.50;53.50;;;;;;5035440;28;20439;-86
2022/02/25 05:26:16;;;;;;;1.60;1.13;;;25.50;53.40;;;;;;5039270;28;20466;-86
2022/02/25 05:28:43;;;;;;;1.60;1.07;;;25.50;53.30;;;;;;5048017;28;20781;-87
2022/02/25 05:31:12;;;;;;;2.13;1.13;;;25.50;53.50;;;;;;5054931;28;20489;-86
2022/02/25 05:33:38;;;;;;;2.27;1.27;;;25.50;53.90;;;;;;5055452;28;20448;-87
2022/02/25 05:36:05;;;;;;;5.03;1.10;;;25.50;53.90;;;;;;5055224;28;20441;-85
2022/02/25 05:38:32;;;;;;;1.63;0.80;;;25.50;53.80;;;;;;5040257;28;20443;-85
2022/02/25 05:40:59;;;;;;;1.50;0.93;;;25.40;54.10;;;;;;5038198;28;20458;-87
2022/02/25 05:43:27;;;;;;;1.30;1.20;;;25.50;54.10;;;;;;5035006;28;20449;-85
2022/02/25 05:45:54;;;;;;;2.50;1.20;;;25.50;54.10;;;;;;5045041;28;20454;-85
2022/02/25 05:48:22;;;;;;;2.93;1.20;;;25.50;53.90;;;;;;5045205;28;20462;-84
2022/02/25 05:50:49;;;;;;;2.13;1.33;;;25.50;53.80;;;;;;5034683;28;20479;-86
2022/02/25 05:53:16;;;;;;;3.13;1.20;;;25.50;53.90;;;;;;5049280;28;20438;-88
2022/02/25 05:55:43;;;;;;;1.23;1.00;;;25.50;54.00;;;;;;5045389;28;21300;-88
2022/02/25 05:58:09;;;;;;;2.37;1.10;;;25.50;54.00;;;;;;5039106;28;20437;-85
2022/02/25 06:00:36;;;;;;;1.87;1.13;;;25.50;54.00;;;;;;5045070;28;20453;-84
2022/02/25 06:03:03;;;;;;;1.10;0.83;;;25.70;54.00;;;;;;5037696;28;20953;-85
2022/02/25 06:05:31;;;;;;;1.80;1.00;;;25.50;53.80;;;;;;5044310;28;20438;-86
2022/02/25 06:08:00;;;;;;;1.10;0.80;;;25.60;53.90;;;;;;5040203;28;20431;-85
2022/02/25 06:10:27;;;;;;;2.60;1.13;;;25.50;53.90;;;;;;5045161;28;20437;-86
2022/02/25 06:12:54;;;;;;;1.43;0.87;;;25.60;53.90;;;;;;5054470;28;20438;-88
2022/02/25 06:15:21;;;;;;;2.30;1.20;;;25.70;53.80;;;;;;5054180;28;20445;-85
2022/02/25 06:17:49;;;;;;;1.50;0.97;;;25.50;53.70;;;;;;5054324;28;20811;-85
2022/02/25 06:20:16;;;;;;;2.23;1.33;;;25.60;53.60;;;;;;5050187;28;20439;-85
2022/02/25 06:22:45;;;;;;;1.23;1.10;;;25.70;53.70;;;;;;5051093;28;20450;-88
2022/02/25 06:25:12;;;;;;;2.73;1.10;;;25.60;53.60;;;;;;5034313;28;20496;-85
2022/02/25 06:27:40;;;;;;;2.43;1.30;;;25.70;53.60;;;;;;5033614;28;20462;-88
2022/02/25 06:30:09;;;;;;;1.20;1.00;;;25.60;53.60;;;;;;5033560;28;20541;-87
2022/02/25 06:32:36;;;;;;;1.93;1.17;;;25.70;53.60;;;;;;5045875;28;20500;-88
2022/02/25 06:35:04;;;;;;;2.37;1.00;;;25.70;53.50;;;;;;5053914;28;20443;-89
2022/02/25 06:37:30;;;;;;;1.57;1.00;;;25.70;53.30;;;;;;5053918;28;20810;-89
2022/02/25 06:39:59;;;;;;;2.30;1.10;;;25.70;53.30;;;;;;5053510;28;20793;-87
2022/02/25 06:42:25;;;;;;;2.63;1.10;;;25.70;53.50;;;;;;5053643;28;20438;-89
2022/02/25 06:44:52;;;;;;;2.43;1.50;;;25.70;53.50;;;;;;5053441;28;20854;-90
2022/02/25 06:47:19;;;;;;;1.50;0.90;;;25.70;53.40;;;;;;5053408;28;20453;-86
2022/02/25 06:49:46;;;;;;;1.60;1.10;;;25.80;53.40;;;;;;5054070;28;20434;-85
2022/02/25 06:52:13;;;;;;;1.93;1.23;;;25.80;53.40;;;;;;5053701;28;20489;-85
2022/02/25 06:54:40;;;;;;;4.83;1.10;;;25.80;53.40;;;;;;5053540;28;20469;-89
2022/02/25 06:57:08;;;;;;;1.60;1.20;;;25.80;53.40;;;;;;5053754;28;20482;-85
2022/02/25 06:59:35;;;;;;;1.73;1.37;;;25.90;53.40;;;;;;5053316;28;20441;-89
2022/02/25 07:02:02;;;;;;;2.63;0.90;;;25.80;53.40;;;;;;5053579;28;20458;-85
2022/02/25 07:04:28;;;;;;;1.50;1.00;;;25.80;53.20;;;;;;5053336;28;20441;-85
2022/02/25 07:06:55;;;;;;;1.90;1.23;;;25.80;53.30;;;;;;5053486;28;20438;-89
2022/02/25 07:09:22;;;;;;;1.40;1.00;;;25.80;53.30;;;;;;5052759;28;20444;-88
2022/02/25 07:11:49;;;;;;;1.30;1.00;;;25.80;53.30;;;;;;5053297;28;20485;-85
2022/02/25 07:14:18;;;;;;;1.60;1.27;;;25.90;53.30;;;;;;5053341;28;20442;-85
2022/02/25 07:16:45;;;;;;;1.60;1.07;;;26.00;53.40;;;;;;5053472;28;20441;-85
2022/02/25 07:19:12;;;;;;;2.03;1.00;;;25.80;53.10;;;;;;5053191;28;20438;-85
2022/02/25 07:21:39;;;;;;;1.37;1.00;;;25.90;53.30;;;;;;5053331;28;20448;-85
2022/02/25 07:24:06;;;;;;;1.50;1.33;;;25.90;53.30;;;;;;5053443;28;20453;-86
2022/02/25 07:26:34;;;;;;;1.50;1.00;;;25.90;53.20;;;;;;5053909;28;20448;-93
2022/02/25 07:29:00;;;;;;;1.70;0.90;;;25.90;53.30;;;;;;5053821;28;20452;-88
2022/02/25 07:31:28;;;;;;;1.30;0.83;;;25.90;53.20;;;;;;5053037;28;20493;-91
2022/02/25 07:33:55;;;;;;;1.77;1.10;;;25.90;53.20;;;;;;5053586;28;20456;-85
2022/02/25 07:36:22;;;;;;;1.10;0.90;;;25.90;53.20;;;;;;5053439;28;20442;-89
2022/02/25 07:38:49;;;;;;;1.57;0.90;;;25.90;53.10;;;;;;5054547;28;20533;-93
2022/02/25 07:41:16;;;;;;;1.20;0.90;;;26.00;53.20;;;;;;5056055;28;20532;-89
2022/02/25 07:43:43;;;;;;;1.50;1.13;;;25.90;53.00;;;;;;5058899;28;20448;-90
2022/02/25 07:46:09;;;;;;;1.83;0.97;;;26.00;53.10;;;;;;5055482;28;20970;-87
2022/02/25 07:48:38;;;;;;;1.40;1.03;;;26.00;53.00;;;;;;5053267;28;20434;-87
2022/02/25 07:51:05;;;;;;;1.80;1.37;;;26.10;52.50;;;;;;5044635;28;20524;-86
2022/02/25 07:53:33;;;;;;;1.30;1.03;;;25.90;52.60;;;;;;5052327;28;20465;-84
2022/02/25 07:56:00;;;;;;;1.80;1.00;;;26.20;52.60;;;;;;5052229;28;20457;-84
2022/02/25 07:58:26;;;;;;;1.60;1.23;;;26.10;52.80;;;;;;5053008;28;20942;-86
2022/02/25 08:00:53;;;;;;;1.40;1.10;;;26.00;52.80;;;;;;5052720;28;20462;-86
2022/02/25 08:03:20;;;;;;;2.50;1.00;;;26.00;52.80;;;;;;5053089;28;20449;-87
2022/02/25 08:05:48;;;;;;;1.30;0.97;;;26.00;52.80;;;;;;5052777;28;20442;-88
2022/02/25 08:08:15;;;;;;;2.03;1.30;;;26.00;52.80;;;;;;5052816;28;20452;-92
2022/02/25 08:10:42;;;;;;;1.47;1.00;;;26.10;52.90;;;;;;5052922;28;20438;-90
2022/02/25 08:13:09;;;;;;;1.30;1.10;;;26.00;52.80;;;;;;5052776;28;20571;-87
2022/02/25 08:15:36;;;;;;;1.70;1.00;;;26.00;52.90;;;;;;5052946;28;20870;-93
2022/02/25 08:18:05;;;;;;;1.80;1.03;;;26.00;52.90;;;;;;5052559;28;20453;-87
2022/02/25 08:20:32;;;;;;;1.80;1.10;;;26.00;52.90;;;;;;5054775;28;20449;-90
2022/02/25 08:23:01;;;;;;;1.20;1.00;;;26.00;52.90;;;;;;5056236;28;20452;-87
2022/02/25 08:25:29;;;;;;;1.80;1.30;;;26.00;52.90;;;;;;5057097;28;20832;-89
2022/02/25 08:27:56;;;;;;;2.00;1.10;;;26.00;52.90;;;;;;5056377;28;20449;-90
2022/02/25 08:30:23;;;;;;;1.50;1.00;;;26.10;53.00;;;;;;5056796;28;20473;-96
2022/02/25 08:33:00;;;;;;;2.60;1.17;;;26.00;52.80;;;;;;5056385;28;20531;-87
2022/02/25 08:35:28;;;;;;;1.97;1.20;;;26.00;52.80;;;;;;5057032;28;20855;-93
2022/02/25 08:37:55;;;;;;;1.30;0.90;;;26.00;52.90;;;;;;5056603;28;20452;-87
2022/02/25 08:40:23;;;;;;;2.03;1.20;;;26.00;52.90;;;;;;5056017;28;20491;-85
2022/02/25 08:42:50;;;;;;;1.20;1.00;;;26.00;52.90;;;;;;5055927;28;20457;-87
2022/02/25 08:45:17;;;;;;;1.30;0.90;;;26.00;52.90;;;;;;5055803;28;20438;-90
2022/02/25 08:47:45;;;;;;;3.47;1.10;;;26.00;52.90;;;;;;5056204;28;20441;-90
2022/02/25 08:50:14;;;;;;;1.70;1.30;;;26.00;52.90;;;;;;5055786;28;20437;-87
2022/02/25 08:52:41;;;;;;;2.60;1.10;;;26.00;52.90;;;;;;5055684;28;20489;-87
2022/02/25 08:55:09;;;;;;;1.67;1.10;;;26.00;53.00;;;;;;5055516;28;20480;-86
2022/02/25 08:57:37;;;;;;;1.30;1.13;;;26.00;53.00;;;;;;5055534;28;20492;-87
2022/02/25 09:00:06;;;;;;;2.07;1.00;;;26.00;52.90;;;;;;5056187;28;20438;-89
2022/02/25 09:02:32;;;;;;;1.47;1.00;;;26.00;52.90;;;;;;5055428;28;20437;-87
2022/02/25 09:05:00;;;;;;;1.90;0.87;;;26.10;53.00;;;;;;5055679;28;20437;-91
2022/02/25 09:07:27;;;;;;;1.50;1.00;;;26.00;53.00;;;;;;5055488;28;20990;-93
2022/02/25 09:09:54;;;;;;;1.30;1.00;;;26.00;53.00;;;;;;5056161;28;20437;-95
2022/02/25 09:12:21;;;;;;;1.90;0.93;;;26.00;52.90;;;;;;5055641;28;20489;-92
2022/02/25 09:14:49;;;;;;;1.83;0.97;;;26.00;53.00;;;;;;5055504;28;20984;-91
2022/02/25 09:17:16;;;;;;;1.23;0.93;;;26.00;52.90;;;;;;5055383;28;20442;-91
2022/02/25 09:19:43;;;;;;;1.70;1.10;;;26.00;52.80;;;;;;5055420;28;20533;-88
2022/02/25 09:22:10;;;;;;;1.57;1.20;;;26.00;52.90;;;;;;5055717;28;20438;-89
2022/02/25 09:24:37;;;;;;;1.60;1.30;;;26.10;52.80;;;;;;5055473;28;20452;-89
2022/02/25 09:27:04;;;;;;;1.20;0.90;;;26.60;52.40;;;;;;5055063;28;21018;-86
2022/02/25 09:29:31;;;;;;;1.70;1.20;;;27.40;51.60;;;;;;5055046;28;20464;-85
2022/02/25 09:31:59;;;;;;;1.60;1.40;;;28.10;50.70;;;;;;5054155;28;20979;-93
2022/02/25 09:34:26;;;;;;;1.40;0.80;;;28.60;50.20;;;;;;5055154;28;20449;-93
2022/02/25 09:36:53;;;;;;;1.43;1.10;;;28.80;50.00;;;;;;5055665;28;20442;-93
2022/02/25 09:39:20;;;;;;;1.30;1.00;;;28.70;50.00;;;;;;5058140;28;20445;-90
2022/02/25 09:41:48;;;;;;;1.30;1.10;;;28.40;50.30;;;;;;5056275;28;20461;-94
2022/02/25 09:44:16;;;;;;;1.30;0.90;;;28.20;50.40;;;;;;5055366;28;20466;-86
2022/02/25 09:46:44;;;;;;;1.40;1.20;;;27.90;50.80;;;;;;5055174;28;20796;-88
2022/02/25 09:49:12;;;;;;;1.30;1.10;;;27.70;50.90;;;;;;5054968;28;20445;-89
2022/02/25 09:51:40;;;;;;;2.30;1.40;;;27.60;51.20;;;;;;5054540;28;20450;-87
2022/02/25 09:54:07;;;;;;;2.27;1.10;;;27.40;51.30;;;;;;5055005;28;20473;-87
2022/02/25 09:56:34;;;;;;;2.00;1.10;;;27.30;51.50;;;;;;5055120;28;20438;-93
2022/02/25 09:59:01;;;;;;;1.37;1.10;;;27.10;51.60;;;;;;5054614;28;20495;-94
2022/02/25 10:01:32;;;;;;;1.50;1.20;;;27.20;51.80;;;;;;5054342;28;20461;-92
2022/02/25 10:04:09;;;;;;;1.70;1.17;;;27.00;51.70;;;;;;5055556;28;20495;-88
2022/02/25 10:06:37;;;;;;;1.63;1.30;;;27.00;51.80;;;;;;5054632;28;20448;-87
2022/02/25 10:09:13;;;;;;;1.63;1.10;;;27.00;51.80;;;;;;5054516;28;20449;-92
2022/02/25 10:12:01;;;;;;;1.63;1.10;;;27.40;51.60;;;;;;5054052;28;20846;-84
2022/02/25 10:14:33;;;;;;;1.40;0.90;;;27.60;51.30;;;;;;5054207;28;20442;-84
2022/02/25 10:17:12;;;;;;;1.40;1.30;;;27.60;51.30;;;;;;5054058;28;20449;-85
2022/02/25 10:19:40;;;;;;;1.77;1.00;;;27.50;51.40;;;;;;5054029;28;20445;-91
2022/02/25 10:22:21;;;;;;;1.73;1.43;;;27.40;51.60;;;;;;5054321;28;20789;-90
2022/02/25 10:24:50;;;;;;;2.03;1.20;;;27.40;51.70;;;;;;5054388;28;20434;-90
2022/02/25 10:27:20;;;;;;;1.93;1.40;;;27.20;51.80;;;;;;5054558;28;20452;-89
2022/02/25 10:30:01;;;;;;;1.30;1.07;;;27.00;51.90;;;;;;5054965;28;20454;-88
2022/02/25 10:32:34;;;;;;;1.40;1.20;;;26.90;52.00;;;;;;5054212;28;20595;-92
2022/02/25 10:35:18;;;;;;;1.43;1.03;;;26.80;52.10;;;;;;5054394;28;20803;-87
2022/02/25 10:38:02;;;;;;;2.07;1.30;;;26.80;52.10;;;;;;5053959;28;20449;-89
2022/02/25 10:40:32;;;;;;;1.40;1.20;;;26.80;52.20;;;;;;5054297;28;20476;-87
2022/02/25 10:42:59;;;;;;;1.63;1.47;;;26.70;52.40;;;;;;5053126;28;20811;-89
2022/02/25 10:45:32;;;;;;;1.50;1.40;;;26.80;52.20;;;;;;5053767;28;20434;-89
2022/02/25 10:48:04;;;;;;;2.10;1.37;;;26.90;52.30;;;;;;5053691;28;20434;-87
2022/02/25 10:50:42;;;;;;;1.50;1.13;;;26.90;51.90;;;;;;5053697;28;21002;-87
2022/02/25 10:53:10;;;;;;;3.03;1.10;;;27.00;52.00;;;;;;5039836;28;20489;-88
2022/02/25 10:55:37;;;;;;;1.37;1.00;;;27.10;52.00;;;;;;5047271;28;20446;-86
2022/02/25 10:58:04;;;;;;;1.67;1.30;;;27.20;52.00;;;;;;5033514;28;20442;-86
2022/02/25 11:00:31;;;;;;;1.77;1.40;;;27.20;52.00;;;;;;5052979;28;20491;-87
2022/02/25 11:03:00;;;;;;;1.37;1.20;;;27.20;52.00;;;;;;5053352;28;20450;-85
2022/02/25 11:05:29;;;;;;;2.90;2.13;;;27.20;52.10;;;;;;5054207;28;20446;-84
2022/02/25 11:07:57;;;;;;;1.37;0.90;;;27.10;52.10;;;;;;5053485;28;20449;-87
2022/02/25 11:10:27;;;;;;;2.50;1.20;;;27.10;52.20;;;;;;5053408;28;20571;-88
2022/02/25 11:12:56;;;;;;;1.80;1.40;;;27.00;52.20;;;;;;5053190;28;20481;-87
2022/02/25 11:15:25;;;;;;;5.17;1.37;;;27.00;52.20;;;;;;5053077;28;20446;-88
2022/02/25 11:17:53;;;;;;;1.93;1.33;;;26.90;52.40;;;;;;5053506;28;20434;-87
2022/02/25 11:20:22;;;;;;;1.50;1.10;;;27.00;52.60;;;;;;5053196;28;20444;-87
2022/02/25 11:22:54;;;;;;;1.70;0.93;;;26.90;52.60;;;;;;5053468;28;20472;-90
2022/02/25 11:25:21;;;;;;;1.37;1.27;;;26.90;52.60;;;;;;5053495;28;20484;-89
2022/02/25 11:27:49;;;;;;;1.83;1.03;;;26.90;52.60;;;;;;5053060;28;20455;-85
2022/02/25 11:30:23;;;;;;;1.37;1.27;;;26.90;52.70;;;;;;5053066;28;20457;-86
2022/02/25 11:32:56;;;;;;;1.60;1.43;;;26.80;52.60;;;;;;5052811;28;20473;-86
2022/02/25 11:35:26;;;;;;;1.90;1.30;;;26.80;52.70;;;;;;5053192;28;20496;-85
2022/02/25 11:37:59;;;;;;;2.03;1.10;;;26.70;52.70;;;;;;5053392;28;20445;-93
2022/02/25 11:40:48;;;;;;;1.80;1.20;;;26.70;52.70;;;;;;5053359;28;20441;-93
2022/02/25 11:43:17;;;;;;;1.20;1.10;;;26.70;52.70;;;;;;5053188;28;20830;-87
2022/02/25 11:45:54;;;;;;;1.50;1.30;;;26.70;52.80;;;;;;5053276;28;20442;-86
2022/02/25 11:48:24;;;;;;;2.20;1.57;;;26.70;52.80;;;;;;5052986;28;20441;-89
2022/02/25 11:50:54;;;;;;;2.13;1.17;;;26.70;52.80;;;;;;5052768;28;20437;-90
2022/02/25 11:53:25;;;;;;;1.80;1.50;;;26.60;52.80;;;;;;5052078;28;20845;-87
2022/02/25 11:55:53;;;;;;;2.03;1.37;;;26.60;52.90;;;;;;5035919;28;20438;-88
2022/02/25 11:58:46;;;;;;;2.23;1.40;;;26.60;52.90;;;;;;5036863;28;20465;-87
2022/02/25 12:01:14;;;;;;;2.10;1.27;;;26.60;52.90;;;;;;5036699;28;20458;-86
2022/02/25 12:04:07;;;;;;;1.63;1.30;;;26.60;53.00;;;;;;5036829;28;20447;-87
2022/02/25 12:07:01;;;;;;;1.53;1.43;;;26.70;53.10;;;;;;5037076;28;20505;-88
2022/02/25 12:09:46;;;;;;;3.87;1.10;;;26.80;53.20;;;;;;5036832;28;20803;-89
2022/02/25 12:12:35;;;;;;;1.93;1.30;;;26.90;53.30;;;;;;5036466;28;20438;-89
2022/02/25 12:15:06;;;;;;;1.97;1.20;;;26.90;53.30;;;;;;5036820;28;20438;-88
2022/02/25 12:17:43;;;;;;;1.30;1.07;;;26.90;53.30;;;;;;5036491;28;20464;-88
2022/02/25 12:20:12;;;;;;;1.70;1.40;;;26.90;53.00;;;;;;5036547;28;20449;-89
2022/02/25 12:23:04;;;;;;;1.70;1.50;;;26.90;53.10;;;;;;5025344;28;20446;-85
2022/02/25 12:25:44;;;;;;;1.50;1.20;;;26.90;53.00;;;;;;5007643;28;20453;-87
2022/02/25 12:28:43;;;;;;;1.40;1.13;;;26.90;53.10;;;;;;5019786;28;20454;-86
2022/02/25 12:31:13;;;;;;;1.77;1.27;;;26.90;53.10;;;;;;5021419;28;20499;-87
2022/02/25 12:33:41;;;;;;;2.70;1.67;;;26.80;53.10;;;;;;5016519;28;20545;-87
2022/02/25 12:36:12;;;;;;;2.43;1.50;;;26.80;53.10;;;;;;5020307;28;20448;-88
2022/02/25 12:38:40;;;;;;;1.87;1.57;;;26.80;53.10;;;;;;5030624;28;20448;-85
2022/02/25 12:41:13;;;;;;;1.90;1.53;;;26.80;53.20;;;;;;5022683;28;20439;-85
2022/02/25 12:43:51;;;;;;;1.40;1.30;;;26.80;53.20;;;;;;5016394;28;20449;-87
2022/02/25 12:46:21;;;;;;;1.77;1.40;;;26.80;53.20;;;;;;5016165;28;20950;-86
2022/02/25 12:48:50;;;;;;;2.30;1.07;;;26.80;53.20;;;;;;5019824;28;20449;-92
2022/02/25 12:51:21;;;;;;;1.60;1.20;;;26.80;53.20;;;;;;5044511;28;20443;-83
2022/02/25 12:53:50;;;;;;;2.47;1.30;;;26.70;53.10;;;;;;5048720;28;20505;-89
2022/02/25 12:56:20;;;;;;;2.27;1.10;;;26.70;53.20;;;;;;5038644;28;20462;-91
2022/02/25 12:58:48;;;;;;;1.90;1.30;;;26.70;53.30;;;;;;5035721;28;20439;-84
2022/02/25 13:01:21;;;;;;;1.60;1.40;;;26.70;53.50;;;;;;5035610;28;20473;-84